sensor_id;sensor_type;location;lat;lon;timestamp;pressure;altitude;pressure_sealevel;temperature;humidity
9415;BME280;4746;35.664;139.738;2023-09-19T00:00:56;100217.94;;;34.52;47.29
9415;BME280;4746;35.664;139.738;2023-09-19T00:03:24;100214.69;;;34.39;46.99
9415;BME280;4746;35.664;139.738;2023-09-19T00:05:55;100206.53;;;34.31;47.27
9415;BME280;4746;35.664;139.738;2023-09-19T00:08:25;100203.34;;;34.27;47.42
9415;BME280;4746;35.664;139.738;2023-09-19T00:10:54;100197.72;;;34.21;46.84
9415;BME280;4746;35.664;139.738;2023-09-19T00:13:22;100196.91;;;34.30;47.14
9415;BME280;4746;35.664;139.738;2023-09-19T00:15:51;100186.53;;;34.46;47.03
9415;BME280;4746;35.664;139.738;2023-09-19T00:18:22;100214.31;;;34.53;46.13
9415;BME280;4746;35.664;139.738;2023-09-19T00:20:51;100207.81;;;34.36;45.40
9415;BME280;4746;35.664;139.738;2023-09-19T00:23:19;100209.75;;;34.25;45.65
9415;BME280;4746;35.664;139.738;2023-09-19T00:25:48;100197.69;;;34.11;46.04
9415;BME280;4746;35.664;139.738;2023-09-19T00:28:18;100196.28;;;34.07;46.28
9415;BME280;4746;35.664;139.738;2023-09-19T00:30:47;100197.00;;;34.09;46.03
9415;BME280;4746;35.664;139.738;2023-09-19T00:33:17;100194.06;;;34.12;46.42
9415;BME280;4746;35.664;139.738;2023-09-19T00:35:56;100188.47;;;34.25;45.87
9415;BME280;4746;35.664;139.738;2023-09-19T00:38:31;100182.72;;;34.20;45.81
9415;BME280;4746;35.664;139.738;2023-09-19T00:40:58;100170.13;;;34.22;45.76
9415;BME280;4746;35.664;139.738;2023-09-19T00:43:27;100173.63;;;34.32;45.47
9415;BME280;4746;35.664;139.738;2023-09-19T00:45:57;100152.91;;;34.45;45.26
9415;BME280;4746;35.664;139.738;2023-09-19T00:48:27;100163.97;;;34.50;45.13
9415;BME280;4746;35.664;139.738;2023-09-19T00:50:58;100166.38;;;34.62;44.89
9415;BME280;4746;35.664;139.738;2023-09-19T00:53:35;100176.19;;;34.62;44.51
9415;BME280;4746;35.664;139.738;2023-09-19T00:56:06;100158.47;;;34.51;43.78
9415;BME280;4746;35.664;139.738;2023-09-19T00:58:36;100148.53;;;34.44;44.33
9415;BME280;4746;35.664;139.738;2023-09-19T01:01:06;100141.69;;;34.51;44.17
9415;BME280;4746;35.664;139.738;2023-09-19T01:03:34;100141.56;;;34.62;43.97
9415;BME280;4746;35.664;139.738;2023-09-19T01:06:03;100130.50;;;34.57;43.71
9415;BME280;4746;35.664;139.738;2023-09-19T01:08:31;100150.94;;;34.65;43.78
9415;BME280;4746;35.664;139.738;2023-09-19T01:11:28;100150.09;;;34.84;43.25
9415;BME280;4746;35.664;139.738;2023-09-19T01:14:35;100140.16;;;34.76;43.18
9415;BME280;4746;35.664;139.738;2023-09-19T01:17:24;100119.91;;;34.83;44.06
9415;BME280;4746;35.664;139.738;2023-09-19T01:20:37;100105.75;;;34.92;43.29
9415;BME280;4746;35.664;139.738;2023-09-19T01:32:06;100096.31;;;35.07;42.31
9415;BME280;4746;35.664;139.738;2023-09-19T01:34:50;100098.72;;;35.10;42.41
9415;BME280;4746;35.664;139.738;2023-09-19T01:37:21;100100.66;;;35.08;42.83
9415;BME280;4746;35.664;139.738;2023-09-19T01:40:02;100099.06;;;35.25;42.60
9415;BME280;4746;35.664;139.738;2023-09-19T01:43:26;100108.22;;;35.49;42.28
9415;BME280;4746;35.664;139.738;2023-09-19T01:46:09;100080.97;;;35.45;42.20
9415;BME280;4746;35.664;139.738;2023-09-19T01:52:20;100089.94;;;35.81;42.03
9415;BME280;4746;35.664;139.738;2023-09-19T01:54:56;100076.00;;;36.04;41.46
9415;BME280;4746;35.664;139.738;2023-09-19T01:57:34;100071.94;;;36.17;40.99
9415;BME280;4746;35.664;139.738;2023-09-19T02:00:08;100083.44;;;36.35;41.27
9415;BME280;4746;35.664;139.738;2023-09-19T02:02:47;100107.44;;;36.45;40.94
9415;BME280;4746;35.664;139.738;2023-09-19T02:05:24;100098.81;;;36.33;40.02
9415;BME280;4746;35.664;139.738;2023-09-19T02:07:55;100090.22;;;36.39;40.34
9415;BME280;4746;35.664;139.738;2023-09-19T02:10:25;100095.22;;;36.42;40.23
9415;BME280;4746;35.664;139.738;2023-09-19T02:12:53;100089.25;;;36.48;40.09
9415;BME280;4746;35.664;139.738;2023-09-19T02:15:21;100080.34;;;36.57;40.41
9415;BME280;4746;35.664;139.738;2023-09-19T02:17:49;100072.63;;;36.79;39.60
9415;BME280;4746;35.664;139.738;2023-09-19T02:20:16;100084.72;;;36.83;39.59
9415;BME280;4746;35.664;139.738;2023-09-19T02:22:46;100082.94;;;36.75;39.24
9415;BME280;4746;35.664;139.738;2023-09-19T02:25:16;100081.25;;;36.48;40.08
9415;BME280;4746;35.664;139.738;2023-09-19T02:27:44;100090.78;;;36.33;39.53
9415;BME280;4746;35.664;139.738;2023-09-19T02:30:12;100085.38;;;36.25;39.74
9415;BME280;4746;35.664;139.738;2023-09-19T02:32:41;100089.13;;;36.32;39.93
9415;BME280;4746;35.664;139.738;2023-09-19T02:35:09;100077.28;;;36.35;39.65
9415;BME280;4746;35.664;139.738;2023-09-19T02:37:37;100082.41;;;36.46;39.66
9415;BME280;4746;35.664;139.738;2023-09-19T02:40:06;100080.47;;;36.56;39.62
9415;BME280;4746;35.664;139.738;2023-09-19T02:42:52;100082.50;;;36.62;39.83
9415;BME280;4746;35.664;139.738;2023-09-19T02:45:20;100083.16;;;36.81;39.32
9415;BME280;4746;35.664;139.738;2023-09-19T02:47:50;100077.31;;;37.03;38.53
9415;BME280;4746;35.664;139.738;2023-09-19T02:50:18;100093.00;;;37.06;38.44
9415;BME280;4746;35.664;139.738;2023-09-19T02:52:47;100078.94;;;36.96;38.64
9415;BME280;4746;35.664;139.738;2023-09-19T02:55:19;100083.47;;;37.03;37.85
9415;BME280;4746;35.664;139.738;2023-09-19T02:57:53;100063.66;;;37.14;37.45
9415;BME280;4746;35.664;139.738;2023-09-19T03:00:24;100056.06;;;37.35;37.70
9415;BME280;4746;35.664;139.738;2023-09-19T03:02:56;100066.41;;;37.79;37.64
9415;BME280;4746;35.664;139.738;2023-09-19T03:05:24;100042.22;;;38.04;37.20
9415;BME280;4746;35.664;139.738;2023-09-19T03:07:53;100051.94;;;38.21;36.78
9415;BME280;4746;35.664;139.738;2023-09-19T03:10:23;100054.75;;;38.04;37.22
9415;BME280;4746;35.664;139.738;2023-09-19T03:12:53;100030.47;;;37.89;37.84
9415;BME280;4746;35.664;139.738;2023-09-19T03:15:21;100035.19;;;38.03;36.91
9415;BME280;4746;35.664;139.738;2023-09-19T03:17:49;100045.03;;;38.11;37.31
9415;BME280;4746;35.664;139.738;2023-09-19T03:20:19;100049.22;;;38.13;37.16
9415;BME280;4746;35.664;139.738;2023-09-19T03:22:48;100032.31;;;37.97;37.01
9415;BME280;4746;35.664;139.738;2023-09-19T03:25:15;100021.94;;;37.78;37.88
9415;BME280;4746;35.664;139.738;2023-09-19T03:27:43;100013.00;;;37.69;37.51
9415;BME280;4746;35.664;139.738;2023-09-19T03:30:11;100035.81;;;37.81;37.54
9415;BME280;4746;35.664;139.738;2023-09-19T03:32:49;100011.09;;;38.03;37.51
9415;BME280;4746;35.664;139.738;2023-09-19T03:35:18;99994.34;;;38.25;37.22
9415;BME280;4746;35.664;139.738;2023-09-19T03:37:46;100033.81;;;38.55;37.05
9415;BME280;4746;35.664;139.738;2023-09-19T03:40:13;100025.97;;;38.53;36.80
9415;BME280;4746;35.664;139.738;2023-09-19T03:42:42;100005.03;;;38.41;36.39
9415;BME280;4746;35.664;139.738;2023-09-19T03:45:10;100019.41;;;38.56;36.30
9415;BME280;4746;35.664;139.738;2023-09-19T03:47:40;99997.47;;;38.68;36.30
9415;BME280;4746;35.664;139.738;2023-09-19T03:50:08;99983.19;;;38.84;36.33
9415;BME280;4746;35.664;139.738;2023-09-19T03:52:37;99981.56;;;39.13;35.83
9415;BME280;4746;35.664;139.738;2023-09-19T03:55:05;100002.09;;;39.28;35.70
9415;BME280;4746;35.664;139.738;2023-09-19T03:57:33;99999.56;;;39.35;35.73
9415;BME280;4746;35.664;139.738;2023-09-19T04:00:04;99997.53;;;39.37;35.56
9415;BME280;4746;35.664;139.738;2023-09-19T04:02:39;99980.63;;;39.06;35.43
9415;BME280;4746;35.664;139.738;2023-09-19T04:05:07;99991.66;;;39.03;35.56
9415;BME280;4746;35.664;139.738;2023-09-19T04:07:34;99969.31;;;39.18;35.36
9415;BME280;4746;35.664;139.738;2023-09-19T04:10:04;99975.53;;;39.49;34.71
9415;BME280;4746;35.664;139.738;2023-09-19T04:12:31;99962.34;;;39.62;35.13
9415;BME280;4746;35.664;139.738;2023-09-19T04:14:59;99951.91;;;39.67;35.39
9415;BME280;4746;35.664;139.738;2023-09-19T04:17:26;99950.00;;;39.75;35.37
9415;BME280;4746;35.664;139.738;2023-09-19T04:19:54;99946.06;;;39.86;35.59
9415;BME280;4746;35.664;139.738;2023-09-19T04:22:21;99926.22;;;40.09;35.36
9415;BME280;4746;35.664;139.738;2023-09-19T04:24:49;99945.53;;;40.27;35.48
9415;BME280;4746;35.664;139.738;2023-09-19T04:27:16;99918.66;;;40.42;34.44
9415;BME280;4746;35.664;139.738;2023-09-19T04:29:45;99941.72;;;40.65;34.71
9415;BME280;4746;35.664;139.738;2023-09-19T04:32:13;99902.72;;;40.54;35.12
9415;BME280;4746;35.664;139.738;2023-09-19T04:34:40;99931.63;;;40.81;34.76
9415;BME280;4746;35.664;139.738;2023-09-19T04:37:08;99941.66;;;41.37;33.28
9415;BME280;4746;35.664;139.738;2023-09-19T04:39:35;99932.41;;;41.88;32.21
9415;BME280;4746;35.664;139.738;2023-09-19T04:42:03;99921.00;;;42.06;31.54
9415;BME280;4746;35.664;139.738;2023-09-19T04:44:31;99922.69;;;42.07;32.18
9415;BME280;4746;35.664;139.738;2023-09-19T04:46:58;99920.47;;;42.45;32.13
9415;BME280;4746;35.664;139.738;2023-09-19T04:49:26;99916.69;;;42.39;31.83
9415;BME280;4746;35.664;139.738;2023-09-19T04:51:53;99932.16;;;42.65;31.18
9415;BME280;4746;35.664;139.738;2023-09-19T04:54:22;99914.41;;;42.36;31.52
9415;BME280;4746;35.664;139.738;2023-09-19T04:56:49;99917.31;;;42.41;31.65
9415;BME280;4746;35.664;139.738;2023-09-19T04:59:17;99916.16;;;42.97;30.86
9415;BME280;4746;35.664;139.738;2023-09-19T05:01:45;99942.69;;;42.93;30.82
9415;BME280;4746;35.664;139.738;2023-09-19T05:04:13;99932.47;;;42.42;31.13
9415;BME280;4746;35.664;139.738;2023-09-19T05:06:42;99935.75;;;42.10;31.73
9415;BME280;4746;35.664;139.738;2023-09-19T05:09:09;99909.69;;;41.90;31.46
9415;BME280;4746;35.664;139.738;2023-09-19T05:11:37;99915.75;;;42.26;31.54
9415;BME280;4746;35.664;139.738;2023-09-19T05:14:05;99903.19;;;42.39;31.28
9415;BME280;4746;35.664;139.738;2023-09-19T05:16:33;99904.88;;;44.63;28.43
9415;BME280;4746;35.664;139.738;2023-09-19T05:19:00;99886.53;;;46.43;26.02
9415;BME280;4746;35.664;139.738;2023-09-19T05:21:28;99909.94;;;47.79;24.62
9415;BME280;4746;35.664;139.738;2023-09-19T05:23:57;99908.94;;;46.74;25.68
9415;BME280;4746;35.664;139.738;2023-09-19T05:26:24;99897.25;;;46.74;25.47
9415;BME280;4746;35.664;139.738;2023-09-19T05:28:55;99892.66;;;46.74;25.36
9415;BME280;4746;35.664;139.738;2023-09-19T05:31:23;99865.88;;;47.88;24.59
9415;BME280;4746;35.664;139.738;2023-09-19T05:33:52;99890.03;;;48.70;23.83
9415;BME280;4746;35.664;139.738;2023-09-19T05:36:21;99878.44;;;49.30;23.15
9415;BME280;4746;35.664;139.738;2023-09-19T05:38:49;99859.88;;;49.88;22.03
9415;BME280;4746;35.664;139.738;2023-09-19T05:41:19;99864.22;;;50.43;21.68
9415;BME280;4746;35.664;139.738;2023-09-19T05:43:50;99864.94;;;51.02;21.09
9415;BME280;4746;35.664;139.738;2023-09-19T05:46:17;99859.38;;;51.45;20.80
9415;BME280;4746;35.664;139.738;2023-09-19T05:48:45;99851.09;;;51.66;20.53
9415;BME280;4746;35.664;139.738;2023-09-19T05:51:14;99834.03;;;52.32;20.08
9415;BME280;4746;35.664;139.738;2023-09-19T05:53:44;99852.59;;;52.86;19.65
9415;BME280;4746;35.664;139.738;2023-09-19T05:56:12;99852.72;;;53.46;19.26
9415;BME280;4746;35.664;139.738;2023-09-19T05:58:41;99831.28;;;53.92;18.95
9415;BME280;4746;35.664;139.738;2023-09-19T06:01:11;99844.97;;;54.07;18.66
9415;BME280;4746;35.664;139.738;2023-09-19T06:03:39;99852.97;;;53.59;19.00
9415;BME280;4746;35.664;139.738;2023-09-19T06:06:06;99847.19;;;53.66;19.13
9415;BME280;4746;35.664;139.738;2023-09-19T06:08:35;99844.34;;;54.40;18.28
9415;BME280;4746;35.664;139.738;2023-09-19T06:11:02;99865.50;;;54.98;18.04
9415;BME280;4746;35.664;139.738;2023-09-19T06:13:32;99868.66;;;54.71;18.25
9415;BME280;4746;35.664;139.738;2023-09-19T06:16:00;99844.50;;;53.71;18.54
9415;BME280;4746;35.664;139.738;2023-09-19T06:18:35;99857.59;;;54.13;18.60
9415;BME280;4746;35.664;139.738;2023-09-19T06:21:03;99849.88;;;54.30;17.92
9415;BME280;4746;35.664;139.738;2023-09-19T06:23:35;99861.13;;;54.24;18.55
9415;BME280;4746;35.664;139.738;2023-09-19T06:26:03;99853.19;;;54.22;18.19
9415;BME280;4746;35.664;139.738;2023-09-19T06:28:33;99844.44;;;54.00;18.48
9415;BME280;4746;35.664;139.738;2023-09-19T06:31:03;99864.25;;;53.68;18.19
9415;BME280;4746;35.664;139.738;2023-09-19T06:33:35;99870.00;;;53.46;18.77
9415;BME280;4746;35.664;139.738;2023-09-19T06:36:06;99854.63;;;53.40;18.79
9415;BME280;4746;35.664;139.738;2023-09-19T06:38:34;99863.09;;;53.09;18.74
9415;BME280;4746;35.664;139.738;2023-09-19T06:41:03;99868.53;;;52.99;19.52
9415;BME280;4746;35.664;139.738;2023-09-19T06:43:34;99869.69;;;53.28;18.84
9415;BME280;4746;35.664;139.738;2023-09-19T06:46:02;99854.63;;;53.35;18.85
9415;BME280;4746;35.664;139.738;2023-09-19T06:48:31;99847.19;;;53.26;19.44
9415;BME280;4746;35.664;139.738;2023-09-19T06:51:01;99856.84;;;53.68;18.23
9415;BME280;4746;35.664;139.738;2023-09-19T06:53:34;99861.38;;;54.37;18.36
9415;BME280;4746;35.664;139.738;2023-09-19T06:56:03;99861.84;;;54.59;17.90
9415;BME280;4746;35.664;139.738;2023-09-19T06:58:31;99851.34;;;54.76;17.68
9415;BME280;4746;35.664;139.738;2023-09-19T07:00:58;99852.72;;;55.22;17.38
9415;BME280;4746;35.664;139.738;2023-09-19T07:03:25;99880.03;;;55.41;17.18
9415;BME280;4746;35.664;139.738;2023-09-19T07:05:55;99859.50;;;54.86;17.14
9415;BME280;4746;35.664;139.738;2023-09-19T07:08:23;99858.69;;;54.27;17.96
9415;BME280;4746;35.664;139.738;2023-09-19T07:10:50;99857.56;;;54.18;17.51
9415;BME280;4746;35.664;139.738;2023-09-19T07:13:19;99844.75;;;53.74;17.97
9415;BME280;4746;35.664;139.738;2023-09-19T07:15:47;99880.41;;;53.64;18.48
9415;BME280;4746;35.664;139.738;2023-09-19T07:18:17;99870.41;;;52.79;18.54
9415;BME280;4746;35.664;139.738;2023-09-19T07:20:46;99885.03;;;52.43;19.20
9415;BME280;4746;35.664;139.738;2023-09-19T07:23:21;99862.88;;;52.03;19.44
9415;BME280;4746;35.664;139.738;2023-09-19T07:25:50;99845.09;;;52.06;19.65
9415;BME280;4746;35.664;139.738;2023-09-19T07:28:18;99868.81;;;51.95;19.40
9415;BME280;4746;35.664;139.738;2023-09-19T07:30:46;99861.22;;;51.66;19.99
9415;BME280;4746;35.664;139.738;2023-09-19T07:33:14;99860.84;;;51.26;20.37
9415;BME280;4746;35.664;139.738;2023-09-19T07:35:47;99852.69;;;51.05;20.93
9415;BME280;4746;35.664;139.738;2023-09-19T07:38:15;99833.72;;;50.93;20.51
9415;BME280;4746;35.664;139.738;2023-09-19T07:40:44;99849.38;;;51.03;20.84
9415;BME280;4746;35.664;139.738;2023-09-19T07:43:12;99855.31;;;50.74;21.04
9415;BME280;4746;35.664;139.738;2023-09-19T07:45:40;99867.78;;;50.65;20.81
9415;BME280;4746;35.664;139.738;2023-09-19T07:48:09;99848.84;;;50.37;21.79
9415;BME280;4746;35.664;139.738;2023-09-19T07:50:42;99846.09;;;50.15;21.75
9415;BME280;4746;35.664;139.738;2023-09-19T07:53:12;99856.00;;;50.05;21.73
9415;BME280;4746;35.664;139.738;2023-09-19T07:55:44;99859.53;;;48.68;22.97
9415;BME280;4746;35.664;139.738;2023-09-19T07:58:14;99870.28;;;46.90;25.23
9415;BME280;4746;35.664;139.738;2023-09-19T08:00:43;99872.00;;;45.40;26.65
9415;BME280;4746;35.664;139.738;2023-09-19T08:03:10;99844.84;;;44.09;28.40
9415;BME280;4746;35.664;139.738;2023-09-19T08:05:41;99850.22;;;43.06;30.08
9415;BME280;4746;35.664;139.738;2023-09-19T08:08:10;99872.81;;;42.24;31.40
9415;BME280;4746;35.664;139.738;2023-09-19T08:10:40;99890.50;;;41.37;32.81
9415;BME280;4746;35.664;139.738;2023-09-19T08:13:10;99899.44;;;40.59;34.13
9415;BME280;4746;35.664;139.738;2023-09-19T08:15:44;99908.31;;;40.02;34.91
9415;BME280;4746;35.664;139.738;2023-09-19T08:18:12;99880.13;;;39.39;36.38
9415;BME280;4746;35.664;139.738;2023-09-19T08:20:39;99888.63;;;38.98;36.68
9415;BME280;4746;35.664;139.738;2023-09-19T08:23:09;99879.09;;;38.57;37.88
9415;BME280;4746;35.664;139.738;2023-09-19T08:25:37;99866.81;;;38.24;38.00
9415;BME280;4746;35.664;139.738;2023-09-19T08:28:05;99878.22;;;37.94;39.41
9415;BME280;4746;35.664;139.738;2023-09-19T08:30:35;99878.56;;;37.67;40.08
9415;BME280;4746;35.664;139.738;2023-09-19T08:33:07;99871.88;;;37.48;40.10
9415;BME280;4746;35.664;139.738;2023-09-19T08:35:34;99865.53;;;37.33;40.49
9415;BME280;4746;35.664;139.738;2023-09-19T08:38:02;99868.81;;;37.19;41.00
9415;BME280;4746;35.664;139.738;2023-09-19T08:40:38;99876.50;;;37.14;41.25
9415;BME280;4746;35.664;139.738;2023-09-19T08:43:10;99864.41;;;36.94;41.86
9415;BME280;4746;35.664;139.738;2023-09-19T08:45:38;99866.72;;;36.81;42.57
9415;BME280;4746;35.664;139.738;2023-09-19T08:48:28;99873.03;;;36.72;42.17
9415;BME280;4746;35.664;139.738;2023-09-19T08:51:39;99876.34;;;36.58;42.30
9415;BME280;4746;35.664;139.738;2023-09-19T08:54:07;99869.19;;;36.33;42.98
9415;BME280;4746;35.664;139.738;2023-09-19T08:56:37;99875.91;;;36.12;44.14
9415;BME280;4746;35.664;139.738;2023-09-19T08:59:07;99877.94;;;35.93;44.86
9415;BME280;4746;35.664;139.738;2023-09-19T09:01:36;99884.88;;;35.86;45.15
9415;BME280;4746;35.664;139.738;2023-09-19T09:04:09;99882.13;;;35.78;44.91
9415;BME280;4746;35.664;139.738;2023-09-19T09:06:41;99880.56;;;35.67;45.76
9415;BME280;4746;35.664;139.738;2023-09-19T09:09:10;99897.69;;;35.65;45.96
9415;BME280;4746;35.664;139.738;2023-09-19T09:11:40;99898.56;;;35.48;46.38
9415;BME280;4746;35.664;139.738;2023-09-19T09:14:10;99914.22;;;35.33;46.62
9415;BME280;4746;35.664;139.738;2023-09-19T09:16:39;99902.34;;;35.28;47.14
9415;BME280;4746;35.664;139.738;2023-09-19T09:19:06;99909.81;;;35.25;47.16
9415;BME280;4746;35.664;139.738;2023-09-19T09:21:34;99928.09;;;35.20;47.28
9415;BME280;4746;35.664;139.738;2023-09-19T09:24:30;99930.88;;;35.18;47.34
9415;BME280;4746;35.664;139.738;2023-09-19T09:27:02;99940.22;;;35.05;47.98
9415;BME280;4746;35.664;139.738;2023-09-19T09:29:46;99942.63;;;35.08;47.75
9415;BME280;4746;35.664;139.738;2023-09-19T09:32:25;99957.53;;;35.18;47.82
9415;BME280;4746;35.664;139.738;2023-09-19T09:35:01;99950.06;;;35.04;48.10
9415;BME280;4746;35.664;139.738;2023-09-19T09:37:30;99955.78;;;34.82;48.43
9415;BME280;4746;35.664;139.738;2023-09-19T09:40:02;99935.53;;;34.89;47.76
9415;BME280;4746;35.664;139.738;2023-09-19T09:42:41;99930.50;;;34.86;47.99
9415;BME280;4746;35.664;139.738;2023-09-19T09:45:22;99957.25;;;34.94;47.80
9415;BME280;4746;35.664;139.738;2023-09-19T09:48:00;99953.78;;;34.84;47.55
9415;BME280;4746;35.664;139.738;2023-09-19T09:50:48;99938.66;;;34.85;47.73
9415;BME280;4746;35.664;139.738;2023-09-19T09:53:29;99944.81;;;34.85;47.82
9415;BME280;4746;35.664;139.738;2023-09-19T09:56:08;99952.38;;;34.90;47.99
9415;BME280;4746;35.664;139.738;2023-09-19T09:58:51;99965.66;;;34.99;47.65
9415;BME280;4746;35.664;139.738;2023-09-19T10:01:26;99961.19;;;34.90;47.99
9415;BME280;4746;35.664;139.738;2023-09-19T10:03:58;99953.88;;;34.92;48.22
9415;BME280;4746;35.664;139.738;2023-09-19T10:06:40;99943.63;;;34.97;47.81
9415;BME280;4746;35.664;139.738;2023-09-19T10:09:15;99940.25;;;34.95;48.09
9415;BME280;4746;35.664;139.738;2023-09-19T10:12:10;99952.03;;;35.02;47.96
9415;BME280;4746;35.664;139.738;2023-09-19T10:14:43;99935.53;;;34.89;48.71
9415;BME280;4746;35.664;139.738;2023-09-19T10:17:18;99940.56;;;34.92;47.88
9415;BME280;4746;35.664;139.738;2023-09-19T10:19:55;99946.59;;;34.94;48.10
9415;BME280;4746;35.664;139.738;2023-09-19T10:22:28;99956.56;;;34.92;47.83
9415;BME280;4746;35.664;139.738;2023-09-19T10:25:01;99960.78;;;34.85;48.13
9415;BME280;4746;35.664;139.738;2023-09-19T10:27:31;99950.44;;;34.82;48.25
9415;BME280;4746;35.664;139.738;2023-09-19T10:30:08;99957.44;;;34.83;48.24
9415;BME280;4746;35.664;139.738;2023-09-19T10:32:42;99954.38;;;34.78;48.53
9415;BME280;4746;35.664;139.738;2023-09-19T10:35:11;99956.81;;;34.72;48.47
9415;BME280;4746;35.664;139.738;2023-09-19T10:37:41;99966.19;;;34.66;49.23
9415;BME280;4746;35.664;139.738;2023-09-19T10:40:12;99948.03;;;34.62;48.71
9415;BME280;4746;35.664;139.738;2023-09-19T10:42:42;99951.78;;;34.60;49.03
9415;BME280;4746;35.664;139.738;2023-09-19T10:45:12;99955.84;;;34.63;48.87
9415;BME280;4746;35.664;139.738;2023-09-19T10:47:42;99961.19;;;34.63;49.60
9415;BME280;4746;35.664;139.738;2023-09-19T10:50:20;99975.16;;;34.65;48.90
9415;BME280;4746;35.664;139.738;2023-09-19T10:52:52;99974.66;;;34.62;49.10
9415;BME280;4746;35.664;139.738;2023-09-19T10:55:31;99977.56;;;34.68;49.10
9415;BME280;4746;35.664;139.738;2023-09-19T10:58:00;99965.97;;;34.60;49.54
9415;BME280;4746;35.664;139.738;2023-09-19T11:00:28;99950.56;;;34.54;49.15
9415;BME280;4746;35.664;139.738;2023-09-19T11:03:19;99966.19;;;34.66;49.60
9415;BME280;4746;35.664;139.738;2023-09-19T11:06:17;99973.94;;;34.60;49.92
9415;BME280;4746;35.664;139.738;2023-09-19T11:09:05;99988.31;;;34.76;49.41
9415;BME280;4746;35.664;139.738;2023-09-19T11:11:52;99997.16;;;34.77;49.30
9415;BME280;4746;35.664;139.738;2023-09-19T11:30:48;99989.38;;;34.47;50.31
9415;BME280;4746;35.664;139.738;2023-09-19T11:33:31;99985.56;;;34.50;50.24
9415;BME280;4746;35.664;139.738;2023-09-19T11:36:12;99981.38;;;34.47;50.02
9415;BME280;4746;35.664;139.738;2023-09-19T11:46:56;99964.59;;;34.47;50.24
9415;BME280;4746;35.664;139.738;2023-09-19T11:49:33;99973.69;;;34.44;49.78
9415;BME280;4746;35.664;139.738;2023-09-19T11:52:03;99981.97;;;34.41;49.95
9415;BME280;4746;35.664;139.738;2023-09-19T11:54:38;99983.84;;;34.22;50.35
9415;BME280;4746;35.664;139.738;2023-09-19T11:57:09;99983.69;;;34.14;50.99
9415;BME280;4746;35.664;139.738;2023-09-19T11:59:40;99995.47;;;34.11;51.09
9415;BME280;4746;35.664;139.738;2023-09-19T12:02:09;99980.94;;;34.06;51.16
9415;BME280;4746;35.664;139.738;2023-09-19T12:04:43;99986.25;;;34.06;50.58
9415;BME280;4746;35.664;139.738;2023-09-19T12:07:18;99982.31;;;34.10;51.36
9415;BME280;4746;35.664;139.738;2023-09-19T12:10:09;99976.13;;;34.19;50.92
9415;BME280;4746;35.664;139.738;2023-09-19T12:12:53;99976.97;;;34.19;50.98
9415;BME280;4746;35.664;139.738;2023-09-19T12:15:29;99985.53;;;34.23;50.78
9415;BME280;4746;35.664;139.738;2023-09-19T12:18:05;99980.63;;;34.18;50.97
9415;BME280;4746;35.664;139.738;2023-09-19T12:20:47;99973.34;;;34.20;50.80
9415;BME280;4746;35.664;139.738;2023-09-19T12:23:15;99990.44;;;34.08;51.21
9415;BME280;4746;35.664;139.738;2023-09-19T12:25:45;99987.22;;;34.14;51.10
9415;BME280;4746;35.664;139.738;2023-09-19T12:28:21;99979.94;;;34.07;51.31
9415;BME280;4746;35.664;139.738;2023-09-19T12:30:50;99969.00;;;34.00;51.57
9415;BME280;4746;35.664;139.738;2023-09-19T12:33:20;99989.03;;;34.04;51.21
9415;BME280;4746;35.664;139.738;2023-09-19T12:35:48;99991.97;;;34.01;51.55
9415;BME280;4746;35.664;139.738;2023-09-19T12:38:28;100010.06;;;34.07;51.89
9415;BME280;4746;35.664;139.738;2023-09-19T12:40:58;99991.81;;;33.93;52.36
9415;BME280;4746;35.664;139.738;2023-09-19T12:43:31;99993.81;;;33.91;51.94
9415;BME280;4746;35.664;139.738;2023-09-19T12:46:04;99997.28;;;33.92;52.15
9415;BME280;4746;35.664;139.738;2023-09-19T12:48:32;100003.88;;;33.88;52.18
9415;BME280;4746;35.664;139.738;2023-09-19T12:51:08;100003.56;;;33.91;52.22
9415;BME280;4746;35.664;139.738;2023-09-19T12:53:42;99998.13;;;33.92;52.40
9415;BME280;4746;35.664;139.738;2023-09-19T12:56:14;99989.88;;;33.86;52.45
9415;BME280;4746;35.664;139.738;2023-09-19T12:58:56;99994.06;;;33.88;52.03
9415;BME280;4746;35.664;139.738;2023-09-19T13:01:32;100004.84;;;33.87;52.17
9415;BME280;4746;35.664;139.738;2023-09-19T13:04:20;100002.03;;;33.98;52.16
9415;BME280;4746;35.664;139.738;2023-09-19T13:06:57;99999.38;;;33.88;52.08
9415;BME280;4746;35.664;139.738;2023-09-19T13:09:28;100004.84;;;33.87;51.82
9415;BME280;4746;35.664;139.738;2023-09-19T13:12:01;100002.34;;;33.76;51.99
9415;BME280;4746;35.664;139.738;2023-09-19T13:14:33;99997.16;;;33.75;52.60
9415;BME280;4746;35.664;139.738;2023-09-19T13:17:08;100004.13;;;33.76;52.37
9415;BME280;4746;35.664;139.738;2023-09-19T13:19:44;100001.38;;;33.77;52.39
9415;BME280;4746;35.664;139.738;2023-09-19T13:22:45;99991.00;;;33.84;51.93
9415;BME280;4746;35.664;139.738;2023-09-19T13:25:25;99999.13;;;33.73;52.34
9415;BME280;4746;35.664;139.738;2023-09-19T13:27:57;99999.13;;;33.73;52.36
9415;BME280;4746;35.664;139.738;2023-09-19T13:30:27;100001.06;;;33.80;52.21
9415;BME280;4746;35.664;139.738;2023-09-19T13:33:11;100008.06;;;33.81;51.66
9415;BME280;4746;35.664;139.738;2023-09-19T13:35:44;100013.38;;;33.72;52.37
9415;BME280;4746;35.664;139.738;2023-09-19T13:38:12;100021.50;;;33.70;52.13
9415;BME280;4746;35.664;139.738;2023-09-19T13:40:40;100020.38;;;33.63;52.52
9415;BME280;4746;35.664;139.738;2023-09-19T13:43:13;100017.31;;;33.68;52.01
9415;BME280;4746;35.664;139.738;2023-09-19T13:45:42;100013.66;;;33.59;52.46
9415;BME280;4746;35.664;139.738;2023-09-19T13:48:13;100021.91;;;33.56;52.33
9415;BME280;4746;35.664;139.738;2023-09-19T13:50:42;100019.81;;;33.60;52.45
9415;BME280;4746;35.664;139.738;2023-09-19T13:53:10;100028.50;;;33.62;52.89
9415;BME280;4746;35.664;139.738;2023-09-19T13:55:41;100021.34;;;33.62;52.92
9415;BME280;4746;35.664;139.738;2023-09-19T13:58:09;100008.88;;;33.53;52.95
9415;BME280;4746;35.664;139.738;2023-09-19T14:00:42;100016.84;;;33.53;52.78